(°C)
10°
11°
11°
12°
12°
11°
11°
(°C)
ESE
ESE
E
ENE
ENE
NE
NE
(km/h)
7-16
7-16
8-18
9-20
10-21
9-19
7-16
(mm)
0
0
0
0
0
0
0.2
(%)
3
3
9
15
22
28
40

Elevazione del sole

/ 47.3°
sun-icon
UV 3
05:31
19:39
Luna crescente (70°)
08:43
01:29

METAR per 52.17°N 20.97°E (EPWA)

Ora Condizioni Temperatura/
Punto di rugiada
Vento Visibilità Tempo Nuvole Pressione Cambiamento Grezzo
MVFR 10°C / 7°C 240º variable 210º to 280º 4kt >10km - Broken Clouds 2000ft 1020 No Significant change EPWA 181100Z 24004KT 210V280 9999 BKN020 10/07 Q1020 NOSIG
MVFR 10°C / 7°C 240º variable 210º to 270º 5kt >10km - Broken Clouds 1800ft 1020 No Significant change EPWA 181030Z 24005KT 210V270 9999 BKN018 10/07 Q1020 NOSIG
MVFR 10°C / 7°C variable 2kt >10km - Broken Clouds 1500ft 1020 No Significant change EPWA 181000Z VRB02KT 9999 BKN015 10/07 Q1020 NOSIG
MVFR 9°C / 6°C variable 1kt >10km - Broken Clouds 1200ft 1020 Becoming: Broken Clouds 1500ft. EPWA 180930Z VRB01KT 9999 BKN012 09/06 Q1020 BECMG BKN015
IFR 8°C / 6°C variable 2kt >10km - Broken Clouds 800ft 1020 Becoming: Broken Clouds 1200ft. EPWA 180900Z VRB02KT 9999 BKN008 08/06 Q1020 BECMG BKN012
IFR 7°C / 7°C variable 2kt 7000m - Broken Clouds 600ft 1020 Becoming: Broken Clouds 1000ft. EPWA 180830Z VRB02KT 7000 BKN006 07/07 Q1020 BECMG BKN010
LIFR 7°C / 7°C variable 1kt 5000m Mist Overcast 400ft 1020 Becoming: Broken Clouds 500ft. EPWA 180800Z VRB01KT 5000 BR OVC004 07/07 Q1020 BECMG BKN005
LIFR 6°C / 6°C 110º variable 060º to 180º 3kt 3800m Mist Overcast 300ft 1020 Becoming: Broken Clouds 500ft. EPWA 180730Z 11003KT 060V180 3800 BR OVC003 06/06 Q1020 BECMG BKN005
LIFR 6°C / 6°C variable 2kt 4000m Mist Overcast 200ft 1020 Becoming: Broken Clouds 300ft. EPWA 180700Z VRB02KT 4000 BR OVC002 06/06 Q1020 BECMG BKN003
LIFR 6°C / 6°C variable 2kt 2300m Mist Overcast 200ft 1020 Temporary: Visibility 1500. EPWA 180630Z VRB02KT 2300 BR OVC002 06/06 Q1020 TEMPO 1500
LIFR 6°C / 6°C variable 2kt 3000m partial Fog Mist Overcast 200ft 1020 Temporary: Visibility 0800. Fog . EPWA 180600Z VRB02KT 3000 0800NW PRFG BR OVC002 06/06 Q1020 TEMPO 0800 FG
LIFR 6°C / 6°C variable 2kt 900m. Runway 33: Visual range is 1100m and increasing. Fog Overcast 200ft 1019 Becoming: Visibility 1500. Mist . EPWA 180530Z VRB02KT 0900 0650NW R33/1100U FG OVC002 06/06 Q1019 BECMG 1500 BR
LIFR 6°C / 6°C variable 2kt 690m. Runway 33: Visual range is 900m. Fog Overcast 200ft 1019 Becoming: Visibility 1000. Mist . EPWA 180500Z VRB02KT 0700 0600W R33/0900N FG OVC002 06/06 Q1019 BECMG 1000 BR
LIFR 6°C / 6°C 120º variable 080º to 140º 3kt 900m. Runway 33: Visual range is 900m. Fog Overcast 200ft 1019 Becoming: Visibility 1500. Mist . EPWA 180430Z 12003KT 080V140 0900 0550W R33/0900N FG OVC002 06/06 Q1019 BECMG 1500 BR
LIFR 6°C / 6°C 180º 4kt 550m. Runway 33: Visual range is 900m. Fog Overcast 200ft 1019 Temporary: Visibility 0700. Fog . EPWA 180400Z 18004KT 0550 0500NW R33/0900N FG OVC002 06/06 Q1019 TEMPO 0700 FG
LIFR 6°C / 6°C 160º 4kt 690m. Runway 33: Visual range is 900m. Fog Overcast 200ft 1019 Temporary: Visibility 1000. Mist . EPWA 180330Z 16004KT 0700 0550W R33/0900N FG OVC002 06/06 Q1019 TEMPO 1000 BR
LIFR 6°C / 6°C 140º variable 100º to 170º 4kt 1100m. Runway 33: Visual range is 1200m. Mist Overcast 200ft 1019 Temporary: Visibility 0700. Fog . EPWA 180300Z 14004KT 100V170 1100 R33/1200N BR OVC002 06/06 Q1019 TEMPO 0700 FG
LIFR 6°C / 6°C 90º variable 060º to 130º 3kt 1100m. Runway 33: Visual range is 1000m. Mist Overcast 200ft 1019 No Significant change EPWA 180230Z 09003KT 060V130 1100 R33/1000N BR OVC002 06/06 Q1019 NOSIG
LIFR 6°C / 6°C 100º 3kt 1200m. Runway 33: Visual range is 1400m. Mist Overcast 200ft 1019 Temporary: Visibility 1500. Mist . EPWA 180200Z 10003KT 1200 R33/1400N BR OVC002 06/06 Q1019 TEMPO 1500 BR
LIFR 6°C / 6°C 130º 5kt 2500m Mist Overcast 200ft 1019 Temporary: Visibility 3500. Mist . EPWA 180130Z 13005KT 2500 BR OVC002 06/06 Q1019 TEMPO 3500 BR
LIFR 6°C / 6°C 90º 4kt 900m. Runway 33: Visual range is 1900m and decreasing. patches Fog Overcast 200ft 1019 No Significant change EPWA 180100Z 09004KT 0900 R33/1900D BCFG OVC002 06/06 Q1019 NOSIG
LIFR 6°C / 6°C 110º variable 080º to 140º 4kt 4300m Mist Overcast 200ft 1019 No Significant change EPWA 180030Z 11004KT 080V140 4300 BR OVC002 06/06 Q1019 NOSIG
LIFR 6°C / 6°C variable 2kt 4900m Mist Overcast 300ft 1019 No Significant change EPWA 180000Z VRB02KT 4900 BR OVC003 06/06 Q1019 NOSIG
LIFR 6°C / 6°C 140º 2kt 5000m Mist Overcast 400ft 1019 Temporary: Visibility 4000. Mist . EPWA 172330Z 14002KT 5000 BR OVC004 06/06 Q1019 TEMPO 4000 BR

MVFR

10°C / 7°C

[Più]
Vento 240º variable 210º to 280º 4kt
Visibilità >10km
Tempo -
Nuvole Broken Clouds 2000ft
Pressione 1020
Cambiamento No Significant change
Grezzo EPWA 181100Z 24004KT 210V280 9999 BKN020 10/07 Q1020 NOSIG

MVFR

10°C / 7°C

[Più]
Vento 240º variable 210º to 270º 5kt
Visibilità >10km
Tempo -
Nuvole Broken Clouds 1800ft
Pressione 1020
Cambiamento No Significant change
Grezzo EPWA 181030Z 24005KT 210V270 9999 BKN018 10/07 Q1020 NOSIG

MVFR

10°C / 7°C

[Più]
Vento variable 2kt
Visibilità >10km
Tempo -
Nuvole Broken Clouds 1500ft
Pressione 1020
Cambiamento No Significant change
Grezzo EPWA 181000Z VRB02KT 9999 BKN015 10/07 Q1020 NOSIG

MVFR

9°C / 6°C

[Più]
Vento variable 1kt
Visibilità >10km
Tempo -
Nuvole Broken Clouds 1200ft
Pressione 1020
Cambiamento Becoming: Broken Clouds 1500ft.
Grezzo EPWA 180930Z VRB01KT 9999 BKN012 09/06 Q1020 BECMG BKN015

IFR

8°C / 6°C

[Più]
Vento variable 2kt
Visibilità >10km
Tempo -
Nuvole Broken Clouds 800ft
Pressione 1020
Cambiamento Becoming: Broken Clouds 1200ft.
Grezzo EPWA 180900Z VRB02KT 9999 BKN008 08/06 Q1020 BECMG BKN012

IFR

7°C / 7°C

[Più]
Vento variable 2kt
Visibilità 7000m
Tempo -
Nuvole Broken Clouds 600ft
Pressione 1020
Cambiamento Becoming: Broken Clouds 1000ft.
Grezzo EPWA 180830Z VRB02KT 7000 BKN006 07/07 Q1020 BECMG BKN010

LIFR

7°C / 7°C

[Più]
Vento variable 1kt
Visibilità 5000m
Tempo Mist
Nuvole Overcast 400ft
Pressione 1020
Cambiamento Becoming: Broken Clouds 500ft.
Grezzo EPWA 180800Z VRB01KT 5000 BR OVC004 07/07 Q1020 BECMG BKN005

LIFR

6°C / 6°C

[Più]
Vento 110º variable 060º to 180º 3kt
Visibilità 3800m
Tempo Mist
Nuvole Overcast 300ft
Pressione 1020
Cambiamento Becoming: Broken Clouds 500ft.
Grezzo EPWA 180730Z 11003KT 060V180 3800 BR OVC003 06/06 Q1020 BECMG BKN005

LIFR

6°C / 6°C

[Più]
Vento variable 2kt
Visibilità 4000m
Tempo Mist
Nuvole Overcast 200ft
Pressione 1020
Cambiamento Becoming: Broken Clouds 300ft.
Grezzo EPWA 180700Z VRB02KT 4000 BR OVC002 06/06 Q1020 BECMG BKN003

LIFR

6°C / 6°C

[Più]
Vento variable 2kt
Visibilità 2300m
Tempo Mist
Nuvole Overcast 200ft
Pressione 1020
Cambiamento Temporary: Visibility 1500.
Grezzo EPWA 180630Z VRB02KT 2300 BR OVC002 06/06 Q1020 TEMPO 1500

LIFR

6°C / 6°C

[Più]
Vento variable 2kt
Visibilità 3000m
Tempo partial Fog Mist
Nuvole Overcast 200ft
Pressione 1020
Cambiamento Temporary: Visibility 0800. Fog .
Grezzo EPWA 180600Z VRB02KT 3000 0800NW PRFG BR OVC002 06/06 Q1020 TEMPO 0800 FG

LIFR

6°C / 6°C

[Più]
Vento variable 2kt
Visibilità 900m. Runway 33: Visual range is 1100m and increasing.
Tempo Fog
Nuvole Overcast 200ft
Pressione 1019
Cambiamento Becoming: Visibility 1500. Mist .
Grezzo EPWA 180530Z VRB02KT 0900 0650NW R33/1100U FG OVC002 06/06 Q1019 BECMG 1500 BR

LIFR

6°C / 6°C

[Più]
Vento variable 2kt
Visibilità 690m. Runway 33: Visual range is 900m.
Tempo Fog
Nuvole Overcast 200ft
Pressione 1019
Cambiamento Becoming: Visibility 1000. Mist .
Grezzo EPWA 180500Z VRB02KT 0700 0600W R33/0900N FG OVC002 06/06 Q1019 BECMG 1000 BR

LIFR

6°C / 6°C

[Più]
Vento 120º variable 080º to 140º 3kt
Visibilità 900m. Runway 33: Visual range is 900m.
Tempo Fog
Nuvole Overcast 200ft
Pressione 1019
Cambiamento Becoming: Visibility 1500. Mist .
Grezzo EPWA 180430Z 12003KT 080V140 0900 0550W R33/0900N FG OVC002 06/06 Q1019 BECMG 1500 BR

LIFR

6°C / 6°C

[Più]
Vento 180º 4kt
Visibilità 550m. Runway 33: Visual range is 900m.
Tempo Fog
Nuvole Overcast 200ft
Pressione 1019
Cambiamento Temporary: Visibility 0700. Fog .
Grezzo EPWA 180400Z 18004KT 0550 0500NW R33/0900N FG OVC002 06/06 Q1019 TEMPO 0700 FG

LIFR

6°C / 6°C

[Più]
Vento 160º 4kt
Visibilità 690m. Runway 33: Visual range is 900m.
Tempo Fog
Nuvole Overcast 200ft
Pressione 1019
Cambiamento Temporary: Visibility 1000. Mist .
Grezzo EPWA 180330Z 16004KT 0700 0550W R33/0900N FG OVC002 06/06 Q1019 TEMPO 1000 BR

LIFR

6°C / 6°C

[Più]
Vento 140º variable 100º to 170º 4kt
Visibilità 1100m. Runway 33: Visual range is 1200m.
Tempo Mist
Nuvole Overcast 200ft
Pressione 1019
Cambiamento Temporary: Visibility 0700. Fog .
Grezzo EPWA 180300Z 14004KT 100V170 1100 R33/1200N BR OVC002 06/06 Q1019 TEMPO 0700 FG

LIFR

6°C / 6°C

[Più]
Vento 90º variable 060º to 130º 3kt
Visibilità 1100m. Runway 33: Visual range is 1000m.
Tempo Mist
Nuvole Overcast 200ft
Pressione 1019
Cambiamento No Significant change
Grezzo EPWA 180230Z 09003KT 060V130 1100 R33/1000N BR OVC002 06/06 Q1019 NOSIG

LIFR

6°C / 6°C

[Più]
Vento 100º 3kt
Visibilità 1200m. Runway 33: Visual range is 1400m.
Tempo Mist
Nuvole Overcast 200ft
Pressione 1019
Cambiamento Temporary: Visibility 1500. Mist .
Grezzo EPWA 180200Z 10003KT 1200 R33/1400N BR OVC002 06/06 Q1019 TEMPO 1500 BR

LIFR

6°C / 6°C

[Più]
Vento 130º 5kt
Visibilità 2500m
Tempo Mist
Nuvole Overcast 200ft
Pressione 1019
Cambiamento Temporary: Visibility 3500. Mist .
Grezzo EPWA 180130Z 13005KT 2500 BR OVC002 06/06 Q1019 TEMPO 3500 BR

LIFR

6°C / 6°C

[Più]
Vento 90º 4kt
Visibilità 900m. Runway 33: Visual range is 1900m and decreasing.
Tempo patches Fog
Nuvole Overcast 200ft
Pressione 1019
Cambiamento No Significant change
Grezzo EPWA 180100Z 09004KT 0900 R33/1900D BCFG OVC002 06/06 Q1019 NOSIG

LIFR

6°C / 6°C

[Più]
Vento 110º variable 080º to 140º 4kt
Visibilità 4300m
Tempo Mist
Nuvole Overcast 200ft
Pressione 1019
Cambiamento No Significant change
Grezzo EPWA 180030Z 11004KT 080V140 4300 BR OVC002 06/06 Q1019 NOSIG

LIFR

6°C / 6°C

[Più]
Vento variable 2kt
Visibilità 4900m
Tempo Mist
Nuvole Overcast 300ft
Pressione 1019
Cambiamento No Significant change
Grezzo EPWA 180000Z VRB02KT 4900 BR OVC003 06/06 Q1019 NOSIG

LIFR

6°C / 6°C

[Più]
Vento 140º 2kt
Visibilità 5000m
Tempo Mist
Nuvole Overcast 400ft
Pressione 1019
Cambiamento Temporary: Visibility 4000. Mist .
Grezzo EPWA 172330Z 14002KT 5000 BR OVC004 06/06 Q1019 TEMPO 4000 BR

TAF per 52.17°N 20.97°E (EPWA)

From till


From till Wind variable 3kt. Visibility 10km or more. Broken Clouds 800ft.
Becoming from till Wind variable 3kt. Visibility 10km or more. Scattered Clouds 3000ft.
With 40% probability, Temporarly from till Light Showers Rain . Broken Clouds 3000ft.
Becoming from till Wind 340º 10kt. Visibility 10km or more. Scattered Clouds 3000ft.
Temporarly from till Visibility 3000m. Mist .
Becoming from till Wind variable 2kt. Visibility 10km or more. Scattered Clouds 3000ft.
With 40% probability, from till Visibility 692.016m. Fog . Broken Clouds 200ft.
Becoming from till Wind 80º 10kt. Visibility 10km or more. Scattered Clouds 3000ft.

Grezzo: TAF EPWA 180830Z 1809/1909 VRB03KT 9999 BKN008 BECMG 1809/1811 SCT030 BECMG 1814/1816 34010KT PROB40 TEMPO 1814/1821 -SHRA BKN030CB TEMPO 1822/1906 3000 BR BECMG 1823/1901 VRB02KT PROB40 1900/1905 0700 FG BKN002 BECMG 1905/1908 08010KT

Tempo in atto per 52.17°N 20.97°E: immagine satellitare e pioggia

  • Precipitazioni:
  • <1 mm
  • 1-2 mm
  • 2-5 mm
  • >5 mm

Il segnaposto è situato a 52.17°N 20.97°E. [Più]

L'immagine satellitare in tempo reale combina la luce visibile durante il giorno con la radiazione infrarossa durante la notte. Di notte l'immagine non è scura poiché i raggi infrarossi possono rilevare differenze di temperatura. Purtroppo, le nuvole basse e la nebbia sono difficili da distinguere dalla temperatura del suolo e possono pertanto essere quasi invisibili durante la notte. Le immagini satellitari Meteosat per l'Europa vengono aggiornate in tempo reale ogni 5 minuti. Le immagini GOES-16 / GOES-17 (Nord e Sud America) e Himawari (Asia) vengono aggiornate ogni 10 minuti.

Le precipitazioni sono stimate da radar e satellite. Una precipitazione notturna stimata da satellite è meno accurata di una diurna. Le croci arancioni identificano i fulmini caduti (in Europa).

Copyright 2021 EUMETSAT / meteoblue. Fulminazioni fornite da nowcast.